sensor_id;sensor_type;location;lat;lon;timestamp;temperature;humidity
17891;DHT22;9071;48.220;14.480;2022-08-30T00:04:32;16.00;99.90
17891;DHT22;9071;48.220;14.480;2022-08-30T00:09:35;16.20;99.90
17891;DHT22;9071;48.220;14.480;2022-08-30T00:14:37;16.00;99.90
17891;DHT22;9071;48.220;14.480;2022-08-30T00:19:40;16.00;99.90
17891;DHT22;9071;48.220;14.480;2022-08-30T00:24:42;15.90;99.90
17891;DHT22;9071;48.220;14.480;2022-08-30T00:29:44;15.80;99.90
17891;DHT22;9071;48.220;14.480;2022-08-30T00:34:48;15.60;99.90
17891;DHT22;9071;48.220;14.480;2022-08-30T00:39:50;15.60;99.90
17891;DHT22;9071;48.220;14.480;2022-08-30T00:44:53;15.50;99.90
17891;DHT22;9071;48.220;14.480;2022-08-30T00:49:56;15.60;99.90
17891;DHT22;9071;48.220;14.480;2022-08-30T00:54:58;15.60;99.90
17891;DHT22;9071;48.220;14.480;2022-08-30T01:00:04;15.70;99.90
17891;DHT22;9071;48.220;14.480;2022-08-30T01:05:09;15.70;99.90
17891;DHT22;9071;48.220;14.480;2022-08-30T01:10:14;15.60;99.90
17891;DHT22;9071;48.220;14.480;2022-08-30T01:15:16;15.60;99.90
17891;DHT22;9071;48.220;14.480;2022-08-30T01:20:24;15.50;99.90
17891;DHT22;9071;48.220;14.480;2022-08-30T01:25:29;15.40;99.90
17891;DHT22;9071;48.220;14.480;2022-08-30T01:30:32;15.30;99.90
17891;DHT22;9071;48.220;14.480;2022-08-30T01:35:42;15.30;99.90
17891;DHT22;9071;48.220;14.480;2022-08-30T01:40:45;15.20;99.90
17891;DHT22;9071;48.220;14.480;2022-08-30T01:45:48;15.20;99.90
17891;DHT22;9071;48.220;14.480;2022-08-30T01:50:50;15.30;99.90
17891;DHT22;9071;48.220;14.480;2022-08-30T01:55:54;15.20;99.90
17891;DHT22;9071;48.220;14.480;2022-08-30T02:00:56;15.20;99.90
17891;DHT22;9071;48.220;14.480;2022-08-30T02:06:01;15.10;99.90
17891;DHT22;9071;48.220;14.480;2022-08-30T02:11:06;15.00;99.90
17891;DHT22;9071;48.220;14.480;2022-08-30T02:16:11;15.00;99.90
17891;DHT22;9071;48.220;14.480;2022-08-30T02:21:13;14.90;99.90
17891;DHT22;9071;48.220;14.480;2022-08-30T02:26:17;15.10;99.90
17891;DHT22;9071;48.220;14.480;2022-08-30T02:31:21;14.90;99.90
17891;DHT22;9071;48.220;14.480;2022-08-30T02:36:24;14.90;99.90
17891;DHT22;9071;48.220;14.480;2022-08-30T02:41:27;14.80;99.90
17891;DHT22;9071;48.220;14.480;2022-08-30T02:46:29;14.80;99.90
17891;DHT22;9071;48.220;14.480;2022-08-30T02:51:31;14.80;99.90
17891;DHT22;9071;48.220;14.480;2022-08-30T02:56:35;14.80;99.90
17891;DHT22;9071;48.220;14.480;2022-08-30T03:01:37;14.90;99.90
17891;DHT22;9071;48.220;14.480;2022-08-30T03:06:39;14.80;99.90
17891;DHT22;9071;48.220;14.480;2022-08-30T03:11:43;14.60;99.90
17891;DHT22;9071;48.220;14.480;2022-08-30T03:16:45;14.40;99.90
17891;DHT22;9071;48.220;14.480;2022-08-30T03:21:47;14.40;99.90
17891;DHT22;9071;48.220;14.480;2022-08-30T03:26:51;14.40;99.90
17891;DHT22;9071;48.220;14.480;2022-08-30T03:31:53;14.30;99.90
17891;DHT22;9071;48.220;14.480;2022-08-30T03:36:55;14.20;99.90
17891;DHT22;9071;48.220;14.480;2022-08-30T03:41:59;14.30;99.90
17891;DHT22;9071;48.220;14.480;2022-08-30T03:47:02;14.20;99.90
17891;DHT22;9071;48.220;14.480;2022-08-30T03:52:04;14.10;99.90
17891;DHT22;9071;48.220;14.480;2022-08-30T03:57:08;14.10;99.90
17891;DHT22;9071;48.220;14.480;2022-08-30T04:02:10;14.00;99.90
17891;DHT22;9071;48.220;14.480;2022-08-30T04:07:12;14.00;99.90
17891;DHT22;9071;48.220;14.480;2022-08-30T04:12:15;14.10;99.90
17891;DHT22;9071;48.220;14.480;2022-08-30T04:17:18;14.10;99.90
17891;DHT22;9071;48.220;14.480;2022-08-30T04:22:20;14.00;99.90
17891;DHT22;9071;48.220;14.480;2022-08-30T04:27:23;14.00;99.90
17891;DHT22;9071;48.220;14.480;2022-08-30T04:32:26;14.00;99.90
17891;DHT22;9071;48.220;14.480;2022-08-30T04:37:28;14.10;99.90
17891;DHT22;9071;48.220;14.480;2022-08-30T04:42:33;14.10;99.90
17891;DHT22;9071;48.220;14.480;2022-08-30T04:47:36;14.20;99.90
17891;DHT22;9071;48.220;14.480;2022-08-30T04:52:38;14.20;99.90
17891;DHT22;9071;48.220;14.480;2022-08-30T04:57:42;14.40;99.90
17891;DHT22;9071;48.220;14.480;2022-08-30T05:02:44;14.50;99.90
17891;DHT22;9071;48.220;14.480;2022-08-30T05:07:48;14.70;99.90
17891;DHT22;9071;48.220;14.480;2022-08-30T05:12:52;14.80;99.90
17891;DHT22;9071;48.220;14.480;2022-08-30T05:17:54;15.00;99.90
17891;DHT22;9071;48.220;14.480;2022-08-30T05:22:56;15.20;99.90
17891;DHT22;9071;48.220;14.480;2022-08-30T05:28:13;15.50;99.90
17891;DHT22;9071;48.220;14.480;2022-08-30T05:33:15;15.80;99.90
17891;DHT22;9071;48.220;14.480;2022-08-30T05:38:17;16.00;99.90
17891;DHT22;9071;48.220;14.480;2022-08-30T05:43:21;16.30;99.90
17891;DHT22;9071;48.220;14.480;2022-08-30T05:48:23;16.80;99.90
17891;DHT22;9071;48.220;14.480;2022-08-30T05:53:25;16.90;99.90
17891;DHT22;9071;48.220;14.480;2022-08-30T05:58:28;17.10;99.90
17891;DHT22;9071;48.220;14.480;2022-08-30T06:03:31;17.60;99.90
17891;DHT22;9071;48.220;14.480;2022-08-30T06:08:33;18.20;99.90
17891;DHT22;9071;48.220;14.480;2022-08-30T06:13:36;18.80;99.90
17891;DHT22;9071;48.220;14.480;2022-08-30T06:18:39;18.90;99.90
17891;DHT22;9071;48.220;14.480;2022-08-30T06:23:41;19.00;99.90
17891;DHT22;9071;48.220;14.480;2022-08-30T06:28:46;18.80;99.90
17891;DHT22;9071;48.220;14.480;2022-08-30T06:33:48;18.80;99.90
17891;DHT22;9071;48.220;14.480;2022-08-30T06:38:52;18.70;99.90
17891;DHT22;9071;48.220;14.480;2022-08-30T06:43:57;19.20;99.90
17891;DHT22;9071;48.220;14.480;2022-08-30T06:49:00;19.10;99.90
17891;DHT22;9071;48.220;14.480;2022-08-30T06:54:07;19.50;99.90
17891;DHT22;9071;48.220;14.480;2022-08-30T06:59:11;19.90;99.90
17891;DHT22;9071;48.220;14.480;2022-08-30T07:04:13;19.90;99.90
17891;DHT22;9071;48.220;14.480;2022-08-30T07:09:15;21.40;99.90
17891;DHT22;9071;48.220;14.480;2022-08-30T07:14:20;24.20;99.90
17891;DHT22;9071;48.220;14.480;2022-08-30T07:19:22;26.00;99.90
17891;DHT22;9071;48.220;14.480;2022-08-30T07:24:24;27.60;99.90
17891;DHT22;9071;48.220;14.480;2022-08-30T07:29:28;28.10;99.90
17891;DHT22;9071;48.220;14.480;2022-08-30T07:34:30;27.10;99.90
17891;DHT22;9071;48.220;14.480;2022-08-30T07:39:32;28.20;99.90
17891;DHT22;9071;48.220;14.480;2022-08-30T07:44:36;28.10;99.90
17891;DHT22;9071;48.220;14.480;2022-08-30T07:49:38;28.60;99.90
17891;DHT22;9071;48.220;14.480;2022-08-30T07:54:40;29.30;99.90
17891;DHT22;9071;48.220;14.480;2022-08-30T07:59:44;29.60;99.90
17891;DHT22;9071;48.220;14.480;2022-08-30T08:04:46;29.70;99.90
17891;DHT22;9071;48.220;14.480;2022-08-30T08:09:48;30.10;99.90
17891;DHT22;9071;48.220;14.480;2022-08-30T08:14:51;29.60;99.90
17891;DHT22;9071;48.220;14.480;2022-08-30T08:19:53;29.50;99.90
17891;DHT22;9071;48.220;14.480;2022-08-30T08:24:55;29.20;99.90
17891;DHT22;9071;48.220;14.480;2022-08-30T08:29:59;28.60;99.90
17891;DHT22;9071;48.220;14.480;2022-08-30T08:35:01;26.00;99.90
17891;DHT22;9071;48.220;14.480;2022-08-30T08:40:04;24.70;99.90
17891;DHT22;9071;48.220;14.480;2022-08-30T08:45:12;24.00;99.90
17891;DHT22;9071;48.220;14.480;2022-08-30T08:50:20;23.60;99.90
17891;DHT22;9071;48.220;14.480;2022-08-30T08:55:23;23.40;99.90
17891;DHT22;9071;48.220;14.480;2022-08-30T09:00:27;23.60;99.90
17891;DHT22;9071;48.220;14.480;2022-08-30T09:05:34;23.50;99.90
17891;DHT22;9071;48.220;14.480;2022-08-30T09:10:37;23.80;99.90
17891;DHT22;9071;48.220;14.480;2022-08-30T09:15:42;23.80;99.90
17891;DHT22;9071;48.220;14.480;2022-08-30T09:20:46;23.90;99.90
17891;DHT22;9071;48.220;14.480;2022-08-30T09:25:50;24.20;99.90
17891;DHT22;9071;48.220;14.480;2022-08-30T09:31:01;24.40;99.90
17891;DHT22;9071;48.220;14.480;2022-08-30T09:36:15;24.10;99.90
17891;DHT22;9071;48.220;14.480;2022-08-30T09:41:32;23.90;99.90
17891;DHT22;9071;48.220;14.480;2022-08-30T09:46:44;24.00;99.90
17891;DHT22;9071;48.220;14.480;2022-08-30T09:51:50;24.30;99.90
17891;DHT22;9071;48.220;14.480;2022-08-30T09:57:02;24.50;99.90
17891;DHT22;9071;48.220;14.480;2022-08-30T10:02:29;24.50;99.90
17891;DHT22;9071;48.220;14.480;2022-08-30T10:07:40;24.50;99.90
17891;DHT22;9071;48.220;14.480;2022-08-30T10:12:53;24.80;99.90
17891;DHT22;9071;48.220;14.480;2022-08-30T10:18:04;24.90;99.90
17891;DHT22;9071;48.220;14.480;2022-08-30T10:23:13;25.30;99.90
17891;DHT22;9071;48.220;14.480;2022-08-30T10:28:24;25.30;99.90
17891;DHT22;9071;48.220;14.480;2022-08-30T10:33:32;25.30;99.90
17891;DHT22;9071;48.220;14.480;2022-08-30T10:38:38;25.60;99.90
17891;DHT22;9071;48.220;14.480;2022-08-30T10:43:50;25.50;99.90
17891;DHT22;9071;48.220;14.480;2022-08-30T10:48:55;25.60;99.90
17891;DHT22;9071;48.220;14.480;2022-08-30T10:54:03;25.90;99.90
17891;DHT22;9071;48.220;14.480;2022-08-30T10:59:09;25.90;99.90
17891;DHT22;9071;48.220;14.480;2022-08-30T11:04:51;26.10;99.90
17891;DHT22;9071;48.220;14.480;2022-08-30T11:10:11;26.00;99.90
17891;DHT22;9071;48.220;14.480;2022-08-30T11:15:18;26.30;99.90
17891;DHT22;9071;48.220;14.480;2022-08-30T11:20:32;26.50;99.90
17891;DHT22;9071;48.220;14.480;2022-08-30T11:25:49;26.60;99.90
17891;DHT22;9071;48.220;14.480;2022-08-30T11:31:03;26.50;99.90
17891;DHT22;9071;48.220;14.480;2022-08-30T11:36:07;26.80;99.90
17891;DHT22;9071;48.220;14.480;2022-08-30T11:41:10;26.80;99.90
17891;DHT22;9071;48.220;14.480;2022-08-30T11:46:16;26.80;99.90
17891;DHT22;9071;48.220;14.480;2022-08-30T11:56:58;26.90;99.90
17891;DHT22;9071;48.220;14.480;2022-08-30T12:02:02;26.50;99.90
17891;DHT22;9071;48.220;14.480;2022-08-30T12:07:07;26.70;99.90
17891;DHT22;9071;48.220;14.480;2022-08-30T12:12:10;26.80;99.90
17891;DHT22;9071;48.220;14.480;2022-08-30T12:17:19;26.90;99.90
17891;DHT22;9071;48.220;14.480;2022-08-30T12:22:40;27.20;99.90
17891;DHT22;9071;48.220;14.480;2022-08-30T12:27:42;27.50;99.90
17891;DHT22;9071;48.220;14.480;2022-08-30T12:32:46;27.50;99.90
17891;DHT22;9071;48.220;14.480;2022-08-30T12:38:01;27.70;99.90
17891;DHT22;9071;48.220;14.480;2022-08-30T12:43:14;27.70;99.90
17891;DHT22;9071;48.220;14.480;2022-08-30T12:48:18;27.60;99.90
17891;DHT22;9071;48.220;14.480;2022-08-30T12:53:26;27.10;99.90
17891;DHT22;9071;48.220;14.480;2022-08-30T12:58:38;27.20;99.90
17891;DHT22;9071;48.220;14.480;2022-08-30T13:03:41;27.20;99.90
17891;DHT22;9071;48.220;14.480;2022-08-30T13:08:50;27.10;99.90
17891;DHT22;9071;48.220;14.480;2022-08-30T13:13:57;27.20;99.90
17891;DHT22;9071;48.220;14.480;2022-08-30T13:19:30;27.20;99.90
17891;DHT22;9071;48.220;14.480;2022-08-30T13:24:35;27.50;99.90
17891;DHT22;9071;48.220;14.480;2022-08-30T13:29:37;27.50;99.90
17891;DHT22;9071;48.220;14.480;2022-08-30T13:34:40;27.20;99.90
17891;DHT22;9071;48.220;14.480;2022-08-30T13:39:44;27.30;99.90
17891;DHT22;9071;48.220;14.480;2022-08-30T13:44:46;27.40;99.90
17891;DHT22;9071;48.220;14.480;2022-08-30T13:49:48;27.50;99.90
17891;DHT22;9071;48.220;14.480;2022-08-30T13:54:53;27.60;99.90
17891;DHT22;9071;48.220;14.480;2022-08-30T13:59:55;27.50;99.90
17891;DHT22;9071;48.220;14.480;2022-08-30T14:04:58;27.50;99.90
17891;DHT22;9071;48.220;14.480;2022-08-30T14:10:02;27.30;99.90
17891;DHT22;9071;48.220;14.480;2022-08-30T14:15:05;27.20;99.90
17891;DHT22;9071;48.220;14.480;2022-08-30T14:20:08;27.30;99.90
17891;DHT22;9071;48.220;14.480;2022-08-30T14:25:12;27.20;99.90
17891;DHT22;9071;48.220;14.480;2022-08-30T14:30:14;27.20;99.90
17891;DHT22;9071;48.220;14.480;2022-08-30T14:35:16;27.20;99.90
17891;DHT22;9071;48.220;14.480;2022-08-30T14:40:21;27.20;99.90
17891;DHT22;9071;48.220;14.480;2022-08-30T14:45:23;27.20;99.90
17891;DHT22;9071;48.220;14.480;2022-08-30T14:50:25;27.20;99.90
17891;DHT22;9071;48.220;14.480;2022-08-30T14:55:29;27.20;99.90
17891;DHT22;9071;48.220;14.480;2022-08-30T15:00:32;27.10;99.90
17891;DHT22;9071;48.220;14.480;2022-08-30T15:05:34;27.10;99.90
17891;DHT22;9071;48.220;14.480;2022-08-30T15:10:39;27.00;99.90
17891;DHT22;9071;48.220;14.480;2022-08-30T15:15:42;27.00;99.90
17891;DHT22;9071;48.220;14.480;2022-08-30T15:20:45;27.00;99.90
17891;DHT22;9071;48.220;14.480;2022-08-30T15:25:48;26.90;99.90
17891;DHT22;9071;48.220;14.480;2022-08-30T15:30:50;26.90;99.90
17891;DHT22;9071;48.220;14.480;2022-08-30T15:35:52;26.90;99.90
17891;DHT22;9071;48.220;14.480;2022-08-30T15:40:56;26.80;99.90
17891;DHT22;9071;48.220;14.480;2022-08-30T15:46:14;26.80;99.90
17891;DHT22;9071;48.220;14.480;2022-08-30T15:51:17;26.70;99.90
17891;DHT22;9071;48.220;14.480;2022-08-30T15:56:20;26.60;99.90
17891;DHT22;9071;48.220;14.480;2022-08-30T16:01:24;26.50;99.90
17891;DHT22;9071;48.220;14.480;2022-08-30T16:06:28;26.40;99.90
17891;DHT22;9071;48.220;14.480;2022-08-30T16:11:32;26.30;99.90
17891;DHT22;9071;48.220;14.480;2022-08-30T16:16:34;26.20;99.90
17891;DHT22;9071;48.220;14.480;2022-08-30T16:21:38;26.00;99.90
17891;DHT22;9071;48.220;14.480;2022-08-30T16:26:43;25.70;99.90
17891;DHT22;9071;48.220;14.480;2022-08-30T16:31:45;25.60;99.90
17891;DHT22;9071;48.220;14.480;2022-08-30T16:36:47;25.40;99.90
17891;DHT22;9071;48.220;14.480;2022-08-30T16:41:51;25.30;99.90
17891;DHT22;9071;48.220;14.480;2022-08-30T16:46:53;25.10;99.90
17891;DHT22;9071;48.220;14.480;2022-08-30T16:51:55;24.80;99.90
17891;DHT22;9071;48.220;14.480;2022-08-30T16:56:58;24.70;99.90
17891;DHT22;9071;48.220;14.480;2022-08-30T17:02:01;24.50;99.90
17891;DHT22;9071;48.220;14.480;2022-08-30T17:07:03;24.40;99.90
17891;DHT22;9071;48.220;14.480;2022-08-30T17:12:07;24.20;99.90
17891;DHT22;9071;48.220;14.480;2022-08-30T17:17:09;24.10;99.90
17891;DHT22;9071;48.220;14.480;2022-08-30T17:22:12;23.90;99.90
17891;DHT22;9071;48.220;14.480;2022-08-30T17:27:15;23.70;99.90
17891;DHT22;9071;48.220;14.480;2022-08-30T17:32:18;23.50;99.90
17891;DHT22;9071;48.220;14.480;2022-08-30T17:37:20;23.30;99.90
17891;DHT22;9071;48.220;14.480;2022-08-30T17:42:24;23.10;99.90
17891;DHT22;9071;48.220;14.480;2022-08-30T17:47:26;22.90;99.90
17891;DHT22;9071;48.220;14.480;2022-08-30T17:52:28;22.80;99.90
17891;DHT22;9071;48.220;14.480;2022-08-30T17:57:32;22.60;99.90
17891;DHT22;9071;48.220;14.480;2022-08-30T18:02:34;22.30;99.90
17891;DHT22;9071;48.220;14.480;2022-08-30T18:07:37;22.10;99.90
17891;DHT22;9071;48.220;14.480;2022-08-30T18:12:41;22.00;99.90
17891;DHT22;9071;48.220;14.480;2022-08-30T18:17:43;21.80;99.90
17891;DHT22;9071;48.220;14.480;2022-08-30T18:22:48;21.60;99.90
17891;DHT22;9071;48.220;14.480;2022-08-30T18:27:52;21.40;99.90
17891;DHT22;9071;48.220;14.480;2022-08-30T18:32:54;21.20;99.90
17891;DHT22;9071;48.220;14.480;2022-08-30T18:37:56;21.20;99.90
17891;DHT22;9071;48.220;14.480;2022-08-30T18:42:59;21.00;99.90
17891;DHT22;9071;48.220;14.480;2022-08-30T18:48:07;20.80;99.90
17891;DHT22;9071;48.220;14.480;2022-08-30T18:53:09;20.80;99.90
17891;DHT22;9071;48.220;14.480;2022-08-30T18:58:13;20.70;99.90
17891;DHT22;9071;48.220;14.480;2022-08-30T19:03:15;20.70;99.90
17891;DHT22;9071;48.220;14.480;2022-08-30T19:08:17;20.60;99.90
17891;DHT22;9071;48.220;14.480;2022-08-30T19:13:21;20.40;99.90
17891;DHT22;9071;48.220;14.480;2022-08-30T19:18:23;20.30;99.90
17891;DHT22;9071;48.220;14.480;2022-08-30T19:23:25;20.20;99.90
17891;DHT22;9071;48.220;14.480;2022-08-30T19:28:29;20.10;99.90
17891;DHT22;9071;48.220;14.480;2022-08-30T19:33:31;19.90;99.90
17891;DHT22;9071;48.220;14.480;2022-08-30T19:38:33;19.90;99.90
17891;DHT22;9071;48.220;14.480;2022-08-30T19:43:37;19.80;99.90
17891;DHT22;9071;48.220;14.480;2022-08-30T19:48:39;19.60;99.90
17891;DHT22;9071;48.220;14.480;2022-08-30T19:53:42;19.50;99.90
17891;DHT22;9071;48.220;14.480;2022-08-30T19:58:46;19.40;99.90
17891;DHT22;9071;48.220;14.480;2022-08-30T20:03:48;19.40;99.90
17891;DHT22;9071;48.220;14.480;2022-08-30T20:08:50;19.30;99.90
17891;DHT22;9071;48.220;14.480;2022-08-30T20:13:53;19.00;99.90
17891;DHT22;9071;48.220;14.480;2022-08-30T20:18:55;18.90;99.90
17891;DHT22;9071;48.220;14.480;2022-08-30T20:23:57;18.70;99.90
17891;DHT22;9071;48.220;14.480;2022-08-30T20:29:02;18.50;99.90
17891;DHT22;9071;48.220;14.480;2022-08-30T20:34:05;18.40;99.90
17891;DHT22;9071;48.220;14.480;2022-08-30T20:39:07;18.20;99.90
17891;DHT22;9071;48.220;14.480;2022-08-30T20:44:11;18.00;99.90
17891;DHT22;9071;48.220;14.480;2022-08-30T20:49:13;17.80;99.90
17891;DHT22;9071;48.220;14.480;2022-08-30T20:54:15;17.80;99.90
17891;DHT22;9071;48.220;14.480;2022-08-30T20:59:19;17.60;99.90
17891;DHT22;9071;48.220;14.480;2022-08-30T21:04:21;17.50;99.90
17891;DHT22;9071;48.220;14.480;2022-08-30T21:09:23;17.50;99.90
17891;DHT22;9071;48.220;14.480;2022-08-30T21:14:26;17.40;99.90
17891;DHT22;9071;48.220;14.480;2022-08-30T21:19:28;17.30;99.90
17891;DHT22;9071;48.220;14.480;2022-08-30T21:24:30;17.30;99.90
17891;DHT22;9071;48.220;14.480;2022-08-30T21:29:34;17.40;99.90
17891;DHT22;9071;48.220;14.480;2022-08-30T21:34:37;17.20;99.90
17891;DHT22;9071;48.220;14.480;2022-08-30T21:39:53;17.00;99.90
17891;DHT22;9071;48.220;14.480;2022-08-30T21:44:57;16.90;99.90
17891;DHT22;9071;48.220;14.480;2022-08-30T21:49:59;16.80;99.90
17891;DHT22;9071;48.220;14.480;2022-08-30T21:55:01;16.70;99.90
17891;DHT22;9071;48.220;14.480;2022-08-30T22:00:07;16.60;99.90
17891;DHT22;9071;48.220;14.480;2022-08-30T22:05:09;16.60;99.90
17891;DHT22;9071;48.220;14.480;2022-08-30T22:10:11;16.60;99.90
17891;DHT22;9071;48.220;14.480;2022-08-30T22:15:15;16.50;99.90
17891;DHT22;9071;48.220;14.480;2022-08-30T22:20:17;16.40;99.90
17891;DHT22;9071;48.220;14.480;2022-08-30T22:25:20;16.30;99.90
17891;DHT22;9071;48.220;14.480;2022-08-30T22:30:23;16.30;99.90
17891;DHT22;9071;48.220;14.480;2022-08-30T22:35:25;16.20;99.90
17891;DHT22;9071;48.220;14.480;2022-08-30T22:40:27;16.10;99.90
17891;DHT22;9071;48.220;14.480;2022-08-30T22:45:32;16.00;99.90
17891;DHT22;9071;48.220;14.480;2022-08-30T22:50:34;15.90;99.90
17891;DHT22;9071;48.220;14.480;2022-08-30T22:55:38;16.00;99.90
17891;DHT22;9071;48.220;14.480;2022-08-30T23:00:42;15.90;99.90
17891;DHT22;9071;48.220;14.480;2022-08-30T23:05:44;15.80;99.90
17891;DHT22;9071;48.220;14.480;2022-08-30T23:10:46;15.80;99.90
17891;DHT22;9071;48.220;14.480;2022-08-30T23:15:50;15.80;99.90
17891;DHT22;9071;48.220;14.480;2022-08-30T23:20:52;15.70;99.90
17891;DHT22;9071;48.220;14.480;2022-08-30T23:25:58;15.70;99.90
17891;DHT22;9071;48.220;14.480;2022-08-30T23:31:19;15.70;99.90
17891;DHT22;9071;48.220;14.480;2022-08-30T23:36:38;15.60;99.90
17891;DHT22;9071;48.220;14.480;2022-08-30T23:41:58;15.60;99.90
17891;DHT22;9071;48.220;14.480;2022-08-30T23:47:19;15.50;99.90
17891;DHT22;9071;48.220;14.480;2022-08-30T23:52:39;15.60;99.90
17891;DHT22;9071;48.220;14.480;2022-08-30T23:57:58;15.50;99.90
